sensor_id;sensor_type;location;lat;lon;timestamp;P1;durP1;ratioP1;P2;durP2;ratioP2
61188;SDS011;47054;39.716;2.904;2022-09-29T00:01:35;7.38;;;4.82;;
61188;SDS011;47054;39.716;2.904;2022-09-29T00:04:20;6.25;;;4.40;;
61188;SDS011;47054;39.716;2.904;2022-09-29T00:07:04;8.07;;;4.63;;
61188;SDS011;47054;39.716;2.904;2022-09-29T00:09:49;8.27;;;4.55;;
61188;SDS011;47054;39.716;2.904;2022-09-29T00:12:33;7.95;;;4.85;;
61188;SDS011;47054;39.716;2.904;2022-09-29T00:15:18;7.22;;;4.32;;
61188;SDS011;47054;39.716;2.904;2022-09-29T00:18:02;8.73;;;4.53;;
61188;SDS011;47054;39.716;2.904;2022-09-29T00:20:55;6.28;;;4.10;;
61188;SDS011;47054;39.716;2.904;2022-09-29T00:23:40;6.43;;;4.43;;
61188;SDS011;47054;39.716;2.904;2022-09-29T00:26:25;7.15;;;4.20;;
61188;SDS011;47054;39.716;2.904;2022-09-29T00:29:09;7.18;;;4.30;;
61188;SDS011;47054;39.716;2.904;2022-09-29T00:31:54;6.95;;;4.47;;
61188;SDS011;47054;39.716;2.904;2022-09-29T00:34:38;6.43;;;4.22;;
61188;SDS011;47054;39.716;2.904;2022-09-29T00:37:23;5.88;;;3.80;;
61188;SDS011;47054;39.716;2.904;2022-09-29T00:40:07;7.63;;;4.35;;
61188;SDS011;47054;39.716;2.904;2022-09-29T00:42:52;6.80;;;4.20;;
61188;SDS011;47054;39.716;2.904;2022-09-29T00:45:37;6.43;;;4.10;;
61188;SDS011;47054;39.716;2.904;2022-09-29T00:48:24;6.72;;;3.88;;
61188;SDS011;47054;39.716;2.904;2022-09-29T00:51:16;6.78;;;4.28;;
61188;SDS011;47054;39.716;2.904;2022-09-29T00:54:02;6.43;;;4.13;;
61188;SDS011;47054;39.716;2.904;2022-09-29T00:56:47;5.38;;;3.67;;
61188;SDS011;47054;39.716;2.904;2022-09-29T00:59:37;5.30;;;3.22;;
61188;SDS011;47054;39.716;2.904;2022-09-29T01:02:29;6.13;;;3.78;;
61188;SDS011;47054;39.716;2.904;2022-09-29T01:05:18;6.20;;;3.40;;
61188;SDS011;47054;39.716;2.904;2022-09-29T01:08:10;6.15;;;4.00;;
61188;SDS011;47054;39.716;2.904;2022-09-29T01:10:59;6.50;;;3.83;;
61188;SDS011;47054;39.716;2.904;2022-09-29T01:13:45;5.80;;;3.65;;
61188;SDS011;47054;39.716;2.904;2022-09-29T01:16:31;5.47;;;3.58;;
61188;SDS011;47054;39.716;2.904;2022-09-29T01:22:20;5.97;;;3.40;;
61188;SDS011;47054;39.716;2.904;2022-09-29T01:25:47;5.88;;;3.47;;
61188;SDS011;47054;39.716;2.904;2022-09-29T01:44:25;4.65;;;3.10;;
61188;SDS011;47054;39.716;2.904;2022-09-29T01:50:12;5.65;;;3.30;;
61188;SDS011;47054;39.716;2.904;2022-09-29T01:53:06;5.72;;;3.13;;
61188;SDS011;47054;39.716;2.904;2022-09-29T01:55:55;6.20;;;3.53;;
61188;SDS011;47054;39.716;2.904;2022-09-29T01:58:55;4.50;;;3.10;;
61188;SDS011;47054;39.716;2.904;2022-09-29T02:01:44;4.82;;;3.03;;
61188;SDS011;47054;39.716;2.904;2022-09-29T02:04:36;6.63;;;3.00;;
61188;SDS011;47054;39.716;2.904;2022-09-29T02:07:27;5.80;;;3.20;;
61188;SDS011;47054;39.716;2.904;2022-09-29T02:10:26;4.82;;;3.13;;
61188;SDS011;47054;39.716;2.904;2022-09-29T02:13:16;4.80;;;3.08;;
61188;SDS011;47054;39.716;2.904;2022-09-29T02:16:02;4.78;;;2.75;;
61188;SDS011;47054;39.716;2.904;2022-09-29T02:19:06;5.00;;;3.13;;
61188;SDS011;47054;39.716;2.904;2022-09-29T02:21:56;4.72;;;2.85;;
61188;SDS011;47054;39.716;2.904;2022-09-29T02:24:41;5.13;;;2.90;;
61188;SDS011;47054;39.716;2.904;2022-09-29T02:27:27;4.60;;;2.85;;
61188;SDS011;47054;39.716;2.904;2022-09-29T02:30:16;5.65;;;3.00;;
61188;SDS011;47054;39.716;2.904;2022-09-29T02:33:01;3.88;;;2.63;;
61188;SDS011;47054;39.716;2.904;2022-09-29T02:35:58;4.45;;;2.80;;
61188;SDS011;47054;39.716;2.904;2022-09-29T02:42:24;4.45;;;2.35;;
61188;SDS011;47054;39.716;2.904;2022-09-29T03:00:18;4.70;;;2.50;;
61188;SDS011;47054;39.716;2.904;2022-09-29T03:03:03;4.55;;;2.53;;
61188;SDS011;47054;39.716;2.904;2022-09-29T03:05:47;4.70;;;2.40;;
61188;SDS011;47054;39.716;2.904;2022-09-29T03:08:32;3.63;;;2.33;;
61188;SDS011;47054;39.716;2.904;2022-09-29T03:11:16;4.32;;;2.65;;
61188;SDS011;47054;39.716;2.904;2022-09-29T03:14:01;4.10;;;2.33;;
61188;SDS011;47054;39.716;2.904;2022-09-29T03:16:46;4.13;;;2.38;;
61188;SDS011;47054;39.716;2.904;2022-09-29T03:19:30;3.35;;;2.30;;
61188;SDS011;47054;39.716;2.904;2022-09-29T03:22:15;4.20;;;2.65;;
61188;SDS011;47054;39.716;2.904;2022-09-29T03:25:02;4.00;;;2.50;;
61188;SDS011;47054;39.716;2.904;2022-09-29T03:27:49;4.97;;;2.30;;
61188;SDS011;47054;39.716;2.904;2022-09-29T03:30:34;4.05;;;2.38;;
61188;SDS011;47054;39.716;2.904;2022-09-29T03:33:19;4.50;;;2.50;;
61188;SDS011;47054;39.716;2.904;2022-09-29T03:36:06;4.72;;;2.60;;
61188;SDS011;47054;39.716;2.904;2022-09-29T03:38:51;4.13;;;2.53;;
61188;SDS011;47054;39.716;2.904;2022-09-29T03:41:36;4.45;;;2.28;;
61188;SDS011;47054;39.716;2.904;2022-09-29T03:44:20;4.88;;;2.30;;
61188;SDS011;47054;39.716;2.904;2022-09-29T03:47:05;4.03;;;2.03;;
61188;SDS011;47054;39.716;2.904;2022-09-29T03:49:49;4.30;;;2.28;;
61188;SDS011;47054;39.716;2.904;2022-09-29T03:52:34;5.88;;;2.20;;
61188;SDS011;47054;39.716;2.904;2022-09-29T03:55:18;3.70;;;2.17;;
61188;SDS011;47054;39.716;2.904;2022-09-29T03:58:03;3.40;;;2.20;;
61188;SDS011;47054;39.716;2.904;2022-09-29T04:00:47;3.72;;;2.33;;
61188;SDS011;47054;39.716;2.904;2022-09-29T04:03:32;3.38;;;2.08;;
61188;SDS011;47054;39.716;2.904;2022-09-29T04:06:17;3.63;;;2.20;;
61188;SDS011;47054;39.716;2.904;2022-09-29T04:09:01;3.72;;;2.25;;
61188;SDS011;47054;39.716;2.904;2022-09-29T04:11:45;3.95;;;2.10;;
61188;SDS011;47054;39.716;2.904;2022-09-29T04:14:30;3.85;;;2.10;;
61188;SDS011;47054;39.716;2.904;2022-09-29T04:17:15;3.22;;;1.92;;
61188;SDS011;47054;39.716;2.904;2022-09-29T04:19:59;3.53;;;2.20;;
61188;SDS011;47054;39.716;2.904;2022-09-29T04:22:44;3.30;;;1.83;;
61188;SDS011;47054;39.716;2.904;2022-09-29T04:25:29;3.20;;;1.98;;
61188;SDS011;47054;39.716;2.904;2022-09-29T04:28:13;3.50;;;2.00;;
61188;SDS011;47054;39.716;2.904;2022-09-29T04:30:58;3.50;;;2.28;;
61188;SDS011;47054;39.716;2.904;2022-09-29T04:33:42;4.25;;;2.00;;
61188;SDS011;47054;39.716;2.904;2022-09-29T04:36:27;3.10;;;2.00;;
61188;SDS011;47054;39.716;2.904;2022-09-29T04:39:11;3.22;;;1.88;;
61188;SDS011;47054;39.716;2.904;2022-09-29T04:41:56;3.30;;;2.15;;
61188;SDS011;47054;39.716;2.904;2022-09-29T04:44:40;2.80;;;1.65;;
61188;SDS011;47054;39.716;2.904;2022-09-29T04:47:25;3.05;;;2.00;;
61188;SDS011;47054;39.716;2.904;2022-09-29T04:50:09;4.60;;;1.90;;
61188;SDS011;47054;39.716;2.904;2022-09-29T04:52:54;4.03;;;2.05;;
61188;SDS011;47054;39.716;2.904;2022-09-29T04:55:39;2.75;;;1.70;;
61188;SDS011;47054;39.716;2.904;2022-09-29T04:58:24;3.30;;;1.80;;
61188;SDS011;47054;39.716;2.904;2022-09-29T05:01:10;3.30;;;1.88;;
61188;SDS011;47054;39.716;2.904;2022-09-29T05:03:57;2.90;;;1.90;;
61188;SDS011;47054;39.716;2.904;2022-09-29T05:06:41;2.58;;;1.73;;
61188;SDS011;47054;39.716;2.904;2022-09-29T05:09:26;3.50;;;1.90;;
61188;SDS011;47054;39.716;2.904;2022-09-29T05:12:10;3.42;;;1.90;;
61188;SDS011;47054;39.716;2.904;2022-09-29T05:14:55;4.47;;;1.90;;
61188;SDS011;47054;39.716;2.904;2022-09-29T05:17:39;3.03;;;1.88;;
61188;SDS011;47054;39.716;2.904;2022-09-29T05:20:24;2.88;;;1.77;;
61188;SDS011;47054;39.716;2.904;2022-09-29T05:23:09;2.90;;;1.77;;
61188;SDS011;47054;39.716;2.904;2022-09-29T05:25:53;3.92;;;2.13;;
61188;SDS011;47054;39.716;2.904;2022-09-29T05:28:41;4.18;;;1.80;;
61188;SDS011;47054;39.716;2.904;2022-09-29T05:31:27;2.60;;;1.67;;
61188;SDS011;47054;39.716;2.904;2022-09-29T05:34:11;2.80;;;1.77;;
61188;SDS011;47054;39.716;2.904;2022-09-29T05:36:56;2.78;;;1.60;;
61188;SDS011;47054;39.716;2.904;2022-09-29T05:39:40;2.70;;;1.70;;
61188;SDS011;47054;39.716;2.904;2022-09-29T05:42:25;3.25;;;1.60;;
61188;SDS011;47054;39.716;2.904;2022-09-29T05:45:10;3.35;;;1.83;;
61188;SDS011;47054;39.716;2.904;2022-09-29T05:47:54;3.13;;;1.63;;
61188;SDS011;47054;39.716;2.904;2022-09-29T05:50:39;3.83;;;1.83;;
61188;SDS011;47054;39.716;2.904;2022-09-29T05:53:27;2.50;;;1.60;;
61188;SDS011;47054;39.716;2.904;2022-09-29T05:56:13;3.30;;;1.90;;
61188;SDS011;47054;39.716;2.904;2022-09-29T05:59:00;2.95;;;1.70;;
61188;SDS011;47054;39.716;2.904;2022-09-29T06:01:44;2.67;;;1.60;;
61188;SDS011;47054;39.716;2.904;2022-09-29T06:04:29;2.67;;;1.58;;
61188;SDS011;47054;39.716;2.904;2022-09-29T06:07:13;2.58;;;1.55;;
61188;SDS011;47054;39.716;2.904;2022-09-29T06:09:58;5.65;;;1.90;;
61188;SDS011;47054;39.716;2.904;2022-09-29T06:12:43;2.90;;;1.73;;
61188;SDS011;47054;39.716;2.904;2022-09-29T06:15:28;3.10;;;1.60;;
61188;SDS011;47054;39.716;2.904;2022-09-29T06:18:12;2.60;;;1.38;;
61188;SDS011;47054;39.716;2.904;2022-09-29T06:21:07;2.78;;;1.60;;
61188;SDS011;47054;39.716;2.904;2022-09-29T06:23:54;2.55;;;1.63;;
61188;SDS011;47054;39.716;2.904;2022-09-29T06:26:39;2.50;;;1.48;;
61188;SDS011;47054;39.716;2.904;2022-09-29T06:29:23;3.20;;;1.50;;
61188;SDS011;47054;39.716;2.904;2022-09-29T06:32:08;3.53;;;1.75;;
61188;SDS011;47054;39.716;2.904;2022-09-29T06:34:52;2.28;;;1.50;;
61188;SDS011;47054;39.716;2.904;2022-09-29T06:38:00;2.53;;;1.50;;
61188;SDS011;47054;39.716;2.904;2022-09-29T06:40:45;2.58;;;1.55;;
61188;SDS011;47054;39.716;2.904;2022-09-29T06:43:30;2.28;;;1.40;;
61188;SDS011;47054;39.716;2.904;2022-09-29T06:46:14;1.85;;;1.25;;
61188;SDS011;47054;39.716;2.904;2022-09-29T06:48:59;2.17;;;1.33;;
61188;SDS011;47054;39.716;2.904;2022-09-29T06:51:43;1.83;;;1.30;;
61188;SDS011;47054;39.716;2.904;2022-09-29T06:54:29;2.42;;;1.50;;
61188;SDS011;47054;39.716;2.904;2022-09-29T06:57:13;2.58;;;1.38;;
61188;SDS011;47054;39.716;2.904;2022-09-29T06:59:57;2.08;;;1.33;;
61188;SDS011;47054;39.716;2.904;2022-09-29T07:02:45;2.28;;;1.40;;
61188;SDS011;47054;39.716;2.904;2022-09-29T07:05:30;2.22;;;1.42;;
61188;SDS011;47054;39.716;2.904;2022-09-29T07:08:16;2.80;;;1.38;;
61188;SDS011;47054;39.716;2.904;2022-09-29T07:11:00;2.83;;;1.45;;
61188;SDS011;47054;39.716;2.904;2022-09-29T07:13:46;2.45;;;1.40;;
61188;SDS011;47054;39.716;2.904;2022-09-29T07:16:30;2.88;;;1.48;;
61188;SDS011;47054;39.716;2.904;2022-09-29T07:19:15;2.03;;;1.20;;
61188;SDS011;47054;39.716;2.904;2022-09-29T07:22:00;1.85;;;1.25;;
61188;SDS011;47054;39.716;2.904;2022-09-29T07:24:45;2.17;;;1.30;;
61188;SDS011;47054;39.716;2.904;2022-09-29T07:27:30;2.40;;;1.40;;
61188;SDS011;47054;39.716;2.904;2022-09-29T07:30:17;1.95;;;1.30;;
61188;SDS011;47054;39.716;2.904;2022-09-29T07:33:02;2.00;;;1.30;;
61188;SDS011;47054;39.716;2.904;2022-09-29T07:35:50;2.33;;;1.40;;
61188;SDS011;47054;39.716;2.904;2022-09-29T07:38:35;2.35;;;1.33;;
61188;SDS011;47054;39.716;2.904;2022-09-29T07:41:20;2.53;;;1.30;;
61188;SDS011;47054;39.716;2.904;2022-09-29T07:44:06;2.67;;;1.33;;
61188;SDS011;47054;39.716;2.904;2022-09-29T07:46:51;1.98;;;1.30;;
61188;SDS011;47054;39.716;2.904;2022-09-29T07:49:35;2.60;;;1.27;;
61188;SDS011;47054;39.716;2.904;2022-09-29T07:52:20;2.53;;;1.40;;
61188;SDS011;47054;39.716;2.904;2022-09-29T07:55:05;1.73;;;1.20;;
61188;SDS011;47054;39.716;2.904;2022-09-29T07:57:50;2.50;;;1.40;;
61188;SDS011;47054;39.716;2.904;2022-09-29T08:00:34;2.33;;;1.42;;
61188;SDS011;47054;39.716;2.904;2022-09-29T08:03:19;2.50;;;1.30;;
61188;SDS011;47054;39.716;2.904;2022-09-29T08:06:08;1.75;;;1.13;;
61188;SDS011;47054;39.716;2.904;2022-09-29T08:08:54;1.70;;;1.15;;
61188;SDS011;47054;39.716;2.904;2022-09-29T08:11:39;1.80;;;1.30;;
61188;SDS011;47054;39.716;2.904;2022-09-29T08:14:25;2.25;;;1.25;;
61188;SDS011;47054;39.716;2.904;2022-09-29T08:17:09;4.32;;;1.13;;
61188;SDS011;47054;39.716;2.904;2022-09-29T08:19:54;2.90;;;1.40;;
61188;SDS011;47054;39.716;2.904;2022-09-29T08:22:38;2.40;;;1.25;;
61188;SDS011;47054;39.716;2.904;2022-09-29T08:25:23;1.95;;;1.17;;
61188;SDS011;47054;39.716;2.904;2022-09-29T08:28:10;2.35;;;1.30;;
61188;SDS011;47054;39.716;2.904;2022-09-29T08:30:55;1.92;;;1.13;;
61188;SDS011;47054;39.716;2.904;2022-09-29T08:33:45;2.97;;;1.25;;
61188;SDS011;47054;39.716;2.904;2022-09-29T08:36:32;2.17;;;1.38;;
61188;SDS011;47054;39.716;2.904;2022-09-29T08:39:17;2.30;;;1.30;;
61188;SDS011;47054;39.716;2.904;2022-09-29T08:45:07;1.80;;;1.10;;
61188;SDS011;47054;39.716;2.904;2022-09-29T08:48:02;3.15;;;1.27;;
61188;SDS011;47054;39.716;2.904;2022-09-29T08:50:57;3.03;;;1.20;;
61188;SDS011;47054;39.716;2.904;2022-09-29T08:53:46;1.95;;;1.30;;
61188;SDS011;47054;39.716;2.904;2022-09-29T08:56:35;2.28;;;1.20;;
61188;SDS011;47054;39.716;2.904;2022-09-29T08:59:20;2.95;;;1.30;;
61188;SDS011;47054;39.716;2.904;2022-09-29T09:02:15;2.78;;;1.23;;
61188;SDS011;47054;39.716;2.904;2022-09-29T09:21:03;1.77;;;1.00;;
61188;SDS011;47054;39.716;2.904;2022-09-29T09:26:43;4.18;;;1.40;;
61188;SDS011;47054;39.716;2.904;2022-09-29T09:29:36;2.00;;;1.15;;
61188;SDS011;47054;39.716;2.904;2022-09-29T09:32:26;4.15;;;1.20;;
61188;SDS011;47054;39.716;2.904;2022-09-29T09:35:23;1.52;;;1.00;;
61188;SDS011;47054;39.716;2.904;2022-09-29T09:38:17;1.45;;;0.90;;
61188;SDS011;47054;39.716;2.904;2022-09-29T09:41:06;2.05;;;1.00;;
61188;SDS011;47054;39.716;2.904;2022-09-29T09:43:52;3.15;;;1.10;;
61188;SDS011;47054;39.716;2.904;2022-09-29T09:46:46;3.25;;;0.90;;
61188;SDS011;47054;39.716;2.904;2022-09-29T09:49:43;1.38;;;0.90;;
61188;SDS011;47054;39.716;2.904;2022-09-29T09:52:45;1.40;;;0.90;;
61188;SDS011;47054;39.716;2.904;2022-09-29T09:55:35;2.95;;;1.10;;
61188;SDS011;47054;39.716;2.904;2022-09-29T10:01:16;1.85;;;1.00;;
61188;SDS011;47054;39.716;2.904;2022-09-29T10:04:01;2.58;;;1.02;;
61188;SDS011;47054;39.716;2.904;2022-09-29T10:06:46;2.63;;;1.30;;
61188;SDS011;47054;39.716;2.904;2022-09-29T10:09:31;4.22;;;1.00;;
61188;SDS011;47054;39.716;2.904;2022-09-29T10:12:25;1.92;;;0.90;;
61188;SDS011;47054;39.716;2.904;2022-09-29T10:15:23;1.77;;;0.98;;
61188;SDS011;47054;39.716;2.904;2022-09-29T10:18:12;2.25;;;1.00;;
61188;SDS011;47054;39.716;2.904;2022-09-29T10:20:57;2.00;;;1.00;;
61188;SDS011;47054;39.716;2.904;2022-09-29T10:23:46;1.92;;;1.00;;
61188;SDS011;47054;39.716;2.904;2022-09-29T10:29:38;2.88;;;0.90;;
61188;SDS011;47054;39.716;2.904;2022-09-29T10:32:29;2.60;;;0.85;;
61188;SDS011;47054;39.716;2.904;2022-09-29T10:35:22;2.22;;;1.10;;
61188;SDS011;47054;39.716;2.904;2022-09-29T10:38:25;2.53;;;1.08;;
61188;SDS011;47054;39.716;2.904;2022-09-29T10:41:10;3.50;;;1.00;;
61188;SDS011;47054;39.716;2.904;2022-09-29T10:43:55;2.33;;;0.90;;
61188;SDS011;47054;39.716;2.904;2022-09-29T10:46:50;2.40;;;0.98;;
61188;SDS011;47054;39.716;2.904;2022-09-29T10:49:37;2.50;;;0.90;;
61188;SDS011;47054;39.716;2.904;2022-09-29T10:52:25;1.35;;;0.80;;
61188;SDS011;47054;39.716;2.904;2022-09-29T10:55:19;3.00;;;1.08;;
61188;SDS011;47054;39.716;2.904;2022-09-29T11:01:11;1.90;;;0.90;;
61188;SDS011;47054;39.716;2.904;2022-09-29T11:04:02;1.63;;;0.82;;
61188;SDS011;47054;39.716;2.904;2022-09-29T11:06:50;1.25;;;0.80;;
61188;SDS011;47054;39.716;2.904;2022-09-29T11:09:42;2.80;;;1.00;;
61188;SDS011;47054;39.716;2.904;2022-09-29T11:12:35;1.95;;;0.95;;
61188;SDS011;47054;39.716;2.904;2022-09-29T11:15:38;3.17;;;0.90;;
61188;SDS011;47054;39.716;2.904;2022-09-29T11:18:28;0.95;;;0.63;;
61188;SDS011;47054;39.716;2.904;2022-09-29T11:30:23;1.52;;;0.80;;
61188;SDS011;47054;39.716;2.904;2022-09-29T11:36:11;1.98;;;0.88;;
61188;SDS011;47054;39.716;2.904;2022-09-29T11:42:33;1.92;;;0.70;;
61188;SDS011;47054;39.716;2.904;2022-09-29T12:13:46;0.77;;;0.65;;
61188;SDS011;47054;39.716;2.904;2022-09-29T12:16:38;0.88;;;0.70;;
61188;SDS011;47054;39.716;2.904;2022-09-29T12:19:31;2.50;;;0.70;;
61188;SDS011;47054;39.716;2.904;2022-09-29T12:22:20;2.28;;;0.70;;
61188;SDS011;47054;39.716;2.904;2022-09-29T12:25:05;2.25;;;0.75;;
61188;SDS011;47054;39.716;2.904;2022-09-29T12:27:58;2.13;;;0.77;;
61188;SDS011;47054;39.716;2.904;2022-09-29T12:30:47;1.80;;;0.80;;
61188;SDS011;47054;39.716;2.904;2022-09-29T12:33:45;1.85;;;0.95;;
61188;SDS011;47054;39.716;2.904;2022-09-29T12:36:50;1.70;;;0.75;;
61188;SDS011;47054;39.716;2.904;2022-09-29T12:43:08;1.73;;;0.88;;
61188;SDS011;47054;39.716;2.904;2022-09-29T12:46:05;1.20;;;0.70;;
61188;SDS011;47054;39.716;2.904;2022-09-29T12:49:36;1.95;;;0.80;;
61188;SDS011;47054;39.716;2.904;2022-09-29T12:52:45;1.15;;;0.60;;
61188;SDS011;47054;39.716;2.904;2022-09-29T12:58:43;1.77;;;0.75;;
61188;SDS011;47054;39.716;2.904;2022-09-29T13:01:32;0.57;;;0.57;;
61188;SDS011;47054;39.716;2.904;2022-09-29T13:04:32;2.08;;;0.80;;
61188;SDS011;47054;39.716;2.904;2022-09-29T13:28:42;1.58;;;0.70;;
61188;SDS011;47054;39.716;2.904;2022-09-29T13:34:30;2.28;;;0.90;;
61188;SDS011;47054;39.716;2.904;2022-09-29T13:37:17;1.00;;;0.75;;
61188;SDS011;47054;39.716;2.904;2022-09-29T13:40:06;1.35;;;0.80;;
61188;SDS011;47054;39.716;2.904;2022-09-29T13:42:53;0.95;;;0.75;;
61188;SDS011;47054;39.716;2.904;2022-09-29T13:45:39;0.90;;;0.60;;
61188;SDS011;47054;39.716;2.904;2022-09-29T13:48:33;0.82;;;0.57;;
61188;SDS011;47054;39.716;2.904;2022-09-29T13:51:23;1.80;;;0.80;;
61188;SDS011;47054;39.716;2.904;2022-09-29T13:54:13;2.88;;;0.88;;
61188;SDS011;47054;39.716;2.904;2022-09-29T14:00:15;1.85;;;0.65;;
61188;SDS011;47054;39.716;2.904;2022-09-29T14:03:03;1.25;;;0.70;;
61188;SDS011;47054;39.716;2.904;2022-09-29T14:05:53;2.15;;;0.85;;
61188;SDS011;47054;39.716;2.904;2022-09-29T14:11:37;0.60;;;0.52;;
61188;SDS011;47054;39.716;2.904;2022-09-29T14:14:27;1.70;;;1.08;;
61188;SDS011;47054;39.716;2.904;2022-09-29T14:17:25;0.82;;;0.50;;
61188;SDS011;47054;39.716;2.904;2022-09-29T14:20:18;2.03;;;0.70;;
61188;SDS011;47054;39.716;2.904;2022-09-29T14:23:06;2.08;;;0.65;;
61188;SDS011;47054;39.716;2.904;2022-09-29T14:25:52;1.05;;;0.60;;
61188;SDS011;47054;39.716;2.904;2022-09-29T14:28:37;1.60;;;0.70;;
61188;SDS011;47054;39.716;2.904;2022-09-29T14:31:25;1.52;;;0.63;;
61188;SDS011;47054;39.716;2.904;2022-09-29T14:34:12;1.00;;;0.52;;
61188;SDS011;47054;39.716;2.904;2022-09-29T14:36:59;1.98;;;0.60;;
61188;SDS011;47054;39.716;2.904;2022-09-29T14:39:46;2.70;;;0.90;;
61188;SDS011;47054;39.716;2.904;2022-09-29T14:43:11;0.63;;;0.50;;
61188;SDS011;47054;39.716;2.904;2022-09-29T14:46:04;1.67;;;0.93;;
61188;SDS011;47054;39.716;2.904;2022-09-29T15:01:24;2.13;;;0.85;;
61188;SDS011;47054;39.716;2.904;2022-09-29T15:04:10;3.47;;;0.70;;
61188;SDS011;47054;39.716;2.904;2022-09-29T15:07:02;2.80;;;0.80;;
61188;SDS011;47054;39.716;2.904;2022-09-29T15:09:57;1.17;;;0.65;;
61188;SDS011;47054;39.716;2.904;2022-09-29T15:12:42;0.55;;;0.40;;
61188;SDS011;47054;39.716;2.904;2022-09-29T15:15:31;0.60;;;0.60;;
61188;SDS011;47054;39.716;2.904;2022-09-29T15:18:22;1.88;;;0.73;;
61188;SDS011;47054;39.716;2.904;2022-09-29T15:21:41;3.05;;;0.77;;
61188;SDS011;47054;39.716;2.904;2022-09-29T15:24:39;2.65;;;1.35;;
61188;SDS011;47054;39.716;2.904;2022-09-29T15:27:26;1.23;;;0.80;;
61188;SDS011;47054;39.716;2.904;2022-09-29T15:30:14;1.38;;;0.70;;
61188;SDS011;47054;39.716;2.904;2022-09-29T15:33:35;0.73;;;0.60;;
61188;SDS011;47054;39.716;2.904;2022-09-29T15:39:05;1.65;;;0.80;;
61188;SDS011;47054;39.716;2.904;2022-09-29T15:42:00;1.13;;;0.57;;
61188;SDS011;47054;39.716;2.904;2022-09-29T15:45:06;1.55;;;0.70;;
61188;SDS011;47054;39.716;2.904;2022-09-29T15:48:00;0.93;;;0.60;;
61188;SDS011;47054;39.716;2.904;2022-09-29T15:50:51;1.27;;;0.70;;
61188;SDS011;47054;39.716;2.904;2022-09-29T15:53:39;0.90;;;0.55;;
61188;SDS011;47054;39.716;2.904;2022-09-29T15:56:23;0.80;;;0.52;;
61188;SDS011;47054;39.716;2.904;2022-09-29T15:59:16;1.67;;;0.70;;
61188;SDS011;47054;39.716;2.904;2022-09-29T16:02:01;0.57;;;0.50;;
61188;SDS011;47054;39.716;2.904;2022-09-29T16:04:51;1.13;;;0.50;;
61188;SDS011;47054;39.716;2.904;2022-09-29T16:07:40;0.75;;;0.50;;
61188;SDS011;47054;39.716;2.904;2022-09-29T16:10:32;1.17;;;0.55;;
61188;SDS011;47054;39.716;2.904;2022-09-29T16:13:30;2.05;;;0.60;;
61188;SDS011;47054;39.716;2.904;2022-09-29T16:16:16;1.95;;;0.70;;
61188;SDS011;47054;39.716;2.904;2022-09-29T16:19:12;1.63;;;0.80;;
61188;SDS011;47054;39.716;2.904;2022-09-29T16:21:59;2.58;;;0.60;;
61188;SDS011;47054;39.716;2.904;2022-09-29T16:24:56;0.80;;;0.50;;
61188;SDS011;47054;39.716;2.904;2022-09-29T16:27:54;0.73;;;0.50;;
61188;SDS011;47054;39.716;2.904;2022-09-29T16:30:42;0.70;;;0.52;;
61188;SDS011;47054;39.716;2.904;2022-09-29T16:33:46;1.17;;;0.55;;
61188;SDS011;47054;39.716;2.904;2022-09-29T16:36:37;0.65;;;0.45;;
61188;SDS011;47054;39.716;2.904;2022-09-29T16:39:23;1.00;;;0.45;;
61188;SDS011;47054;39.716;2.904;2022-09-29T16:42:15;0.93;;;0.60;;
61188;SDS011;47054;39.716;2.904;2022-09-29T16:45:03;2.40;;;0.70;;
61188;SDS011;47054;39.716;2.904;2022-09-29T16:47:52;0.75;;;0.55;;
61188;SDS011;47054;39.716;2.904;2022-09-29T16:50:37;1.40;;;0.63;;
61188;SDS011;47054;39.716;2.904;2022-09-29T16:53:30;0.82;;;0.55;;
61188;SDS011;47054;39.716;2.904;2022-09-29T16:56:17;1.55;;;0.65;;
61188;SDS011;47054;39.716;2.904;2022-09-29T16:59:10;0.95;;;0.60;;
61188;SDS011;47054;39.716;2.904;2022-09-29T17:01:59;0.82;;;0.50;;
61188;SDS011;47054;39.716;2.904;2022-09-29T17:04:43;0.65;;;0.45;;
61188;SDS011;47054;39.716;2.904;2022-09-29T17:07:28;0.93;;;0.70;;
61188;SDS011;47054;39.716;2.904;2022-09-29T17:10:16;0.80;;;0.55;;
61188;SDS011;47054;39.716;2.904;2022-09-29T17:13:06;1.42;;;0.50;;
61188;SDS011;47054;39.716;2.904;2022-09-29T17:15:59;0.60;;;0.45;;
61188;SDS011;47054;39.716;2.904;2022-09-29T17:18:44;1.58;;;0.73;;
61188;SDS011;47054;39.716;2.904;2022-09-29T17:21:29;1.27;;;0.85;;
61188;SDS011;47054;39.716;2.904;2022-09-29T17:24:13;1.17;;;0.60;;
61188;SDS011;47054;39.716;2.904;2022-09-29T17:26:57;1.20;;;0.68;;
61188;SDS011;47054;39.716;2.904;2022-09-29T17:30:00;0.40;;;0.32;;
61188;SDS011;47054;39.716;2.904;2022-09-29T17:32:46;0.60;;;0.40;;
61188;SDS011;47054;39.716;2.904;2022-09-29T17:35:32;0.82;;;0.60;;
61188;SDS011;47054;39.716;2.904;2022-09-29T17:38:19;1.40;;;0.50;;
61188;SDS011;47054;39.716;2.904;2022-09-29T17:41:05;1.30;;;0.68;;
61188;SDS011;47054;39.716;2.904;2022-09-29T17:43:50;0.40;;;0.40;;
61188;SDS011;47054;39.716;2.904;2022-09-29T17:46:37;1.00;;;0.60;;
61188;SDS011;47054;39.716;2.904;2022-09-29T17:49:22;0.98;;;0.60;;
61188;SDS011;47054;39.716;2.904;2022-09-29T17:52:08;0.55;;;0.50;;
61188;SDS011;47054;39.716;2.904;2022-09-29T17:54:58;1.27;;;0.60;;
61188;SDS011;47054;39.716;2.904;2022-09-29T17:57:44;0.98;;;0.60;;
61188;SDS011;47054;39.716;2.904;2022-09-29T18:00:34;1.13;;;0.68;;
61188;SDS011;47054;39.716;2.904;2022-09-29T18:03:23;1.13;;;0.60;;
61188;SDS011;47054;39.716;2.904;2022-09-29T18:06:09;1.25;;;0.65;;
61188;SDS011;47054;39.716;2.904;2022-09-29T18:09:14;0.88;;;0.60;;
61188;SDS011;47054;39.716;2.904;2022-09-29T18:12:00;1.40;;;0.50;;
61188;SDS011;47054;39.716;2.904;2022-09-29T18:14:45;1.52;;;0.68;;
61188;SDS011;47054;39.716;2.904;2022-09-29T18:17:29;1.10;;;0.70;;
61188;SDS011;47054;39.716;2.904;2022-09-29T18:20:15;1.05;;;0.60;;
61188;SDS011;47054;39.716;2.904;2022-09-29T18:23:02;0.60;;;0.50;;
61188;SDS011;47054;39.716;2.904;2022-09-29T18:25:47;1.10;;;0.65;;
61188;SDS011;47054;39.716;2.904;2022-09-29T18:28:33;0.52;;;0.50;;
61188;SDS011;47054;39.716;2.904;2022-09-29T18:34:10;0.93;;;0.50;;
61188;SDS011;47054;39.716;2.904;2022-09-29T18:36:59;0.68;;;0.50;;
61188;SDS011;47054;39.716;2.904;2022-09-29T18:39:44;0.90;;;0.63;;
61188;SDS011;47054;39.716;2.904;2022-09-29T18:42:28;0.70;;;0.60;;
61188;SDS011;47054;39.716;2.904;2022-09-29T18:45:14;0.65;;;0.63;;
61188;SDS011;47054;39.716;2.904;2022-09-29T18:48:07;1.67;;;0.80;;
61188;SDS011;47054;39.716;2.904;2022-09-29T18:50:55;0.90;;;0.60;;
61188;SDS011;47054;39.716;2.904;2022-09-29T18:53:39;1.40;;;0.73;;
61188;SDS011;47054;39.716;2.904;2022-09-29T18:56:25;1.70;;;0.73;;
61188;SDS011;47054;39.716;2.904;2022-09-29T18:59:10;1.70;;;0.77;;
61188;SDS011;47054;39.716;2.904;2022-09-29T19:01:55;2.10;;;0.80;;
61188;SDS011;47054;39.716;2.904;2022-09-29T19:04:40;1.60;;;0.80;;
61188;SDS011;47054;39.716;2.904;2022-09-29T19:07:24;2.30;;;0.70;;
61188;SDS011;47054;39.716;2.904;2022-09-29T19:10:10;0.85;;;0.60;;
61188;SDS011;47054;39.716;2.904;2022-09-29T19:13:00;1.20;;;0.70;;
61188;SDS011;47054;39.716;2.904;2022-09-29T19:15:47;2.85;;;0.73;;
61188;SDS011;47054;39.716;2.904;2022-09-29T19:18:32;1.83;;;0.95;;
61188;SDS011;47054;39.716;2.904;2022-09-29T19:21:16;2.00;;;0.80;;
61188;SDS011;47054;39.716;2.904;2022-09-29T19:24:01;1.48;;;0.80;;
61188;SDS011;47054;39.716;2.904;2022-09-29T19:26:46;1.90;;;0.90;;
61188;SDS011;47054;39.716;2.904;2022-09-29T19:29:30;1.45;;;0.80;;
61188;SDS011;47054;39.716;2.904;2022-09-29T19:32:15;1.63;;;0.80;;
61188;SDS011;47054;39.716;2.904;2022-09-29T19:35:00;1.05;;;0.80;;
61188;SDS011;47054;39.716;2.904;2022-09-29T19:37:45;2.10;;;1.08;;
61188;SDS011;47054;39.716;2.904;2022-09-29T19:40:31;1.70;;;0.80;;
61188;SDS011;47054;39.716;2.904;2022-09-29T19:43:20;2.20;;;0.88;;
61188;SDS011;47054;39.716;2.904;2022-09-29T19:46:06;2.63;;;0.80;;